createdAt,value
2017-04-07T00:01:01.360Z,7.17
2017-04-07T00:02:23.521Z,7.17
2017-04-07T00:03:45.659Z,7.28
2017-04-07T00:05:08.230Z,7.3
2017-04-07T00:06:30.928Z,7.3
2017-04-07T00:07:52.809Z,7.34
2017-04-07T00:09:14.008Z,7.39
2017-04-07T00:10:35.828Z,7.43
2017-04-07T00:11:58.226Z,7.46
2017-04-07T00:13:19.756Z,7.45
2017-04-07T00:14:41.987Z,7.52
2017-04-07T00:16:03.803Z,7.48
2017-04-07T00:17:26.247Z,7.49
2017-04-07T00:18:48.381Z,7.43
2017-04-07T00:20:10.835Z,7.42
2017-04-07T00:21:32.650Z,7.52
2017-04-07T00:22:55.359Z,7.43
2017-04-07T00:24:16.568Z,7.46
2017-04-07T00:25:38.389Z,7.55
2017-04-07T00:27:00.843Z,7.58
2017-04-07T00:28:23.287Z,7.53
2017-04-07T00:29:45.150Z,7.58
2017-04-07T00:31:07.377Z,7.53
2017-04-07T00:32:29.197Z,7.5
2017-04-07T00:33:50.367Z,7.57
2017-04-07T00:35:12.214Z,7.58
2017-04-07T00:36:34.113Z,7.61
2017-04-07T00:37:55.959Z,7.58
2017-04-07T00:39:18.337Z,7.58
2017-04-07T00:40:40.887Z,7.6
2017-04-07T00:42:03.029Z,7.57
2017-04-07T00:43:25.488Z,7.55
2017-04-07T00:44:47.304Z,7.57
2017-04-07T00:46:08.607Z,7.55
2017-04-07T00:47:30.427Z,7.6
2017-04-07T00:48:52.598Z,7.68
2017-04-07T00:50:14.972Z,7.64
2017-04-07T00:51:36.510Z,7.67
2017-04-07T00:52:58.766Z,7.69
2017-04-07T00:54:19.949Z,7.72
2017-04-07T00:55:42.078Z,7.68
2017-04-07T00:57:03.897Z,7.68
2017-04-07T00:58:25.707Z,7.71
2017-04-07T00:59:47.518Z,7.77
2017-04-07T01:01:09.269Z,7.8
2017-04-07T01:02:30.791Z,7.8
2017-04-07T01:03:52.639Z,7.71
2017-04-07T01:05:14.484Z,7.74
2017-04-07T01:06:36.925Z,7.95
2017-04-07T01:07:58.771Z,7.92
2017-04-07T01:09:20.967Z,7.8
2017-04-07T01:10:43.129Z,7.77
2017-04-07T01:12:05.877Z,7.79
2017-04-07T01:13:27.061Z,7.79
2017-04-07T01:14:48.578Z,7.9
2017-04-07T01:16:10.074Z,7.79
2017-04-07T01:17:32.938Z,7.82
2017-04-07T01:18:54.749Z,7.77
2017-04-07T01:20:16.587Z,7.8
2017-04-07T01:21:38.404Z,7.82
2017-04-07T01:23:01.079Z,7.98
2017-04-07T01:24:23.227Z,7.8
2017-04-07T01:25:45.415Z,7.87
2017-04-07T01:27:07.946Z,7.95
2017-04-07T01:28:29.956Z,7.93
2017-04-07T01:29:52.138Z,7.93
2017-04-07T01:31:13.968Z,7.87
2017-04-07T01:32:36.099Z,7.93
2017-04-07T01:33:58.970Z,7.92
2017-04-07T01:35:20.540Z,7.86
2017-04-07T01:36:42.736Z,7.95
2017-04-07T01:38:04.586Z,7.97
2017-04-07T01:39:26.726Z,7.92
2017-04-07T01:40:48.935Z,7.92
2017-04-07T01:42:10.773Z,7.92
2017-04-07T01:43:32.460Z,7.95
2017-04-07T01:44:54.267Z,8.02
2017-04-07T01:46:15.881Z,8
2017-04-07T01:47:37.817Z,8.01
2017-04-07T01:49:00.068Z,7.98
2017-04-07T01:50:22.195Z,8.01
2017-04-07T01:51:44.026Z,7.98
2017-04-07T01:53:06.258Z,7.93
2017-04-07T01:54:27.805Z,8
2017-04-07T01:55:50.238Z,7.97
2017-04-07T01:57:12.686Z,8
2017-04-07T01:58:34.493Z,7.95
2017-04-07T01:59:55.690Z,8.05
2017-04-07T02:01:17.443Z,8.08
2017-04-07T02:02:38.944Z,8
2017-04-07T02:04:01.087Z,7.98
2017-04-07T02:05:22.935Z,8.1
2017-04-07T02:06:44.098Z,8.04
2017-04-07T02:08:06.229Z,8.11
2017-04-07T02:09:28.375Z,8.1
2017-04-07T02:10:49.994Z,8.11
2017-04-07T02:12:12.552Z,8.11
2017-04-07T02:13:34.768Z,8.16
2017-04-07T02:14:56.306Z,8.08
2017-04-07T02:16:18.777Z,8.18
2017-04-07T02:17:40.953Z,8.11
2017-04-07T02:19:03.417Z,8.11
2017-04-07T02:20:25.231Z,8.1
2017-04-07T02:21:47.335Z,8.12
2017-04-07T02:23:09.846Z,8.18
2017-04-07T02:24:31.714Z,8.08
2017-04-07T02:25:53.867Z,8.12
2017-04-07T02:27:15.698Z,8.15
2017-04-07T02:28:38.647Z,8.08
2017-04-07T02:30:00.838Z,8.15
2017-04-07T02:31:22.967Z,8.12
2017-04-07T02:32:44.485Z,8.22
2017-04-07T02:34:06.915Z,8.07
2017-04-07T02:35:29.101Z,8.11
2017-04-07T02:36:50.291Z,8.05
2017-04-07T02:38:12.730Z,8.1
2017-04-07T02:39:34.815Z,8.12
2017-04-07T02:40:56.626Z,8.04
2017-04-07T02:42:18.237Z,8.18
2017-04-07T02:43:40.063Z,8.18
2017-04-07T02:45:02.610Z,8.11
2017-04-07T02:46:24.865Z,8.23
2017-04-07T02:47:46.704Z,8.07
2017-04-07T02:49:08.678Z,8.1
2017-04-07T02:50:30.826Z,8.18
2017-04-07T02:51:52.963Z,8.15
2017-04-07T02:53:14.165Z,8.15
2017-04-07T02:54:36.348Z,8.18
2017-04-07T02:55:58.806Z,8.19
2017-04-07T02:57:20.636Z,8.19
2017-04-07T02:58:41.825Z,8.16
2017-04-07T03:00:04.078Z,8.18
2017-04-07T03:01:26.278Z,8.16
2017-04-07T03:02:48.429Z,8.19
2017-04-07T03:04:10.924Z,8.11
2017-04-07T03:05:32.852Z,8.2
2017-04-07T03:06:54.468Z,8.16
2017-04-07T03:08:16.692Z,8.18
2017-04-07T03:09:38.847Z,8.23
2017-04-07T03:11:01.129Z,8.19
2017-04-07T03:12:23.947Z,8.18
2017-04-07T03:13:46.064Z,8.2
2017-04-07T03:15:07.895Z,8.18
2017-04-07T03:16:30.043Z,8.19
2017-04-07T03:17:52.105Z,8.18
2017-04-07T03:19:13.947Z,8.25
2017-04-07T03:20:35.460Z,8.12
2017-04-07T03:21:56.963Z,8.16
2017-04-07T03:23:19.086Z,8.15
2017-04-07T03:24:41.321Z,8.25
2017-04-07T03:26:03.449Z,8.3
2017-04-07T03:27:25.901Z,8.3
2017-04-07T03:28:47.757Z,8.18
2017-04-07T03:30:10.223Z,8.18
2017-04-07T03:31:32.398Z,8.16
2017-04-07T03:32:54.621Z,8.2
2017-04-07T03:34:16.792Z,8.25
2017-04-07T03:35:38.915Z,8.19
2017-04-07T03:37:01.047Z,8.18
2017-04-07T03:38:23.505Z,8.3
2017-04-07T03:39:45.265Z,8.3
2017-04-07T03:41:06.794Z,8.25
2017-04-07T03:42:28.617Z,8.38
2017-04-07T03:43:51.049Z,8.33
2017-04-07T03:45:13.315Z,8.33
2017-04-07T03:46:35.464Z,8.28
2017-04-07T03:47:58.022Z,8.36
2017-04-07T03:49:18.892Z,8.3
2017-04-07T03:50:40.945Z,8.3
2017-04-07T03:52:02.830Z,8.34
2017-04-07T03:53:25.294Z,8.3
2017-04-07T03:54:46.683Z,8.41
2017-04-07T03:56:08.506Z,8.25
2017-04-07T03:57:30.651Z,8.33
2017-04-07T03:58:53.104Z,8.37
2017-04-07T04:00:14.955Z,8.25
2017-04-07T04:01:37.078Z,8.29
2017-04-07T04:02:59.214Z,8.36
2017-04-07T04:04:21.744Z,8.34
2017-04-07T04:05:44.295Z,8.3
2017-04-07T04:07:06.826Z,8.4
2017-04-07T04:08:28.345Z,8.36
2017-04-07T04:09:50.144Z,8.29
2017-04-07T04:11:12.449Z,8.34
2017-04-07T04:12:33.936Z,8.33
2017-04-07T04:13:55.775Z,8.43
2017-04-07T04:15:17.597Z,8.3
2017-04-07T04:16:39.827Z,8.34
2017-04-07T04:18:02.677Z,8.26
2017-04-07T04:19:24.185Z,8.37
2017-04-07T04:20:46.015Z,8.36
2017-04-07T04:22:08.460Z,8.3
2017-04-07T04:23:30.922Z,8.37
2017-04-07T04:24:52.876Z,8.37
2017-04-07T04:26:15.035Z,8.38
2017-04-07T04:27:37.188Z,8.41
2017-04-07T04:28:59.932Z,8.37
2017-04-07T04:30:22.211Z,8.36
2017-04-07T04:31:43.723Z,8.4
2017-04-07T04:33:05.532Z,8.45
2017-04-07T04:34:28.443Z,8.43
2017-04-07T04:35:50.925Z,8.48
2017-04-07T04:37:13.392Z,8.52
2017-04-07T04:38:34.793Z,8.48
2017-04-07T04:39:57.287Z,8.48
2017-04-07T04:41:19.433Z,8.52
2017-04-07T04:42:41.602Z,8.52
2017-04-07T04:44:03.775Z,8.44
2017-04-07T04:45:25.283Z,8.48
2017-04-07T04:46:47.107Z,8.58
2017-04-07T04:48:09.385Z,8.48
2017-04-07T04:49:31.537Z,8.56
2017-04-07T04:50:53.295Z,8.58
2017-04-07T04:52:15.112Z,8.52
2017-04-07T04:53:36.933Z,8.56
2017-04-07T04:54:59.413Z,8.59
2017-04-07T04:56:21.176Z,8.53
2017-04-07T04:57:42.684Z,8.63
2017-04-07T04:59:04.908Z,8.62
2017-04-07T05:00:26.438Z,8.63
2017-04-07T05:01:49.187Z,8.66
2017-04-07T05:03:11.035Z,8.68
2017-04-07T05:04:33.238Z,8.66
2017-04-07T05:05:55.516Z,8.68
2017-04-07T05:07:18.095Z,8.65
2017-04-07T05:08:39.946Z,8.74
2017-04-07T05:10:02.413Z,8.79
2017-04-07T05:11:24.893Z,8.73
2017-04-07T05:12:47.339Z,8.7
2017-04-07T05:14:09.165Z,8.68
2017-04-07T05:15:31.285Z,8.77
2017-04-07T05:16:53.424Z,8.71
2017-04-07T05:18:15.183Z,8.79
2017-04-07T05:19:36.735Z,8.84
2017-04-07T05:20:58.308Z,8.8
2017-04-07T05:22:19.797Z,8.86
2017-04-07T05:23:42.246Z,8.81
2017-04-07T05:25:04.079Z,8.91
2017-04-07T05:26:25.904Z,8.83
2017-04-07T05:27:47.747Z,8.84
2017-04-07T05:29:09.536Z,8.96
2017-04-07T05:30:31.666Z,9.05
2017-04-07T05:31:53.816Z,8.92
2017-04-07T05:33:16.264Z,8.99
2017-04-07T05:34:37.746Z,9.01
2017-04-07T05:35:59.566Z,9.01
2017-04-07T05:37:21.430Z,9.13
2017-04-07T05:38:42.949Z,9.14
2017-04-07T05:40:05.076Z,9.2
2017-04-07T05:41:27.217Z,9.24
2017-04-07T05:42:49.737Z,9.29
2017-04-07T05:44:10.926Z,9.43
2017-04-07T05:45:32.994Z,9.42
2017-04-07T05:46:55.146Z,9.47
2017-04-07T05:48:17.287Z,9.64
2017-04-07T05:49:39.780Z,9.69
2017-04-07T05:51:02.255Z,9.86
2017-04-07T05:52:24.084Z,9.81
2017-04-07T05:53:46.233Z,9.83
2017-04-07T05:55:08.091Z,9.9
2017-04-07T05:56:30.837Z,9.87
2017-04-07T05:57:52.376Z,9.78
2017-04-07T05:59:14.269Z,9.81
2017-04-07T06:00:36.102Z,9.87
2017-04-07T06:01:58.162Z,9.86
2017-04-07T06:03:20.160Z,9.81
2017-04-07T06:04:42.626Z,9.75
2017-04-07T06:06:04.146Z,9.86
2017-04-07T06:07:26.265Z,9.87
2017-04-07T06:08:48.716Z,9.81
2017-04-07T06:10:11.179Z,9.93
2017-04-07T06:11:32.991Z,9.81
2017-04-07T06:12:54.536Z,9.76
2017-04-07T06:14:16.699Z,9.75
2017-04-07T06:15:38.882Z,9.81
2017-04-07T06:17:01.026Z,9.89
2017-04-07T06:18:23.214Z,10.02
2017-04-07T06:19:45.356Z,10.02
2017-04-07T06:21:07.190Z,10.07
2017-04-07T06:22:29.389Z,10.14
2017-04-07T06:23:51.786Z,10.26
2017-04-07T06:25:13.804Z,10.41
2017-04-07T06:26:35.645Z,10.44
2017-04-07T06:27:58.202Z,10.59
2017-04-07T06:29:20.885Z,10.67
2017-04-07T06:30:42.395Z,10.89
2017-04-07T06:32:04.232Z,11.03
2017-04-07T06:33:26.530Z,11.17
2017-04-07T06:34:48.623Z,11.25
2017-04-07T06:36:10.820Z,11.39
2017-04-07T06:37:32.709Z,11.47
2017-04-07T06:38:55.272Z,11.36
2017-04-07T06:40:18.103Z,11.35
2017-04-07T06:41:40.066Z,11.35
2017-04-07T06:43:01.834Z,11.51
2017-04-07T06:44:24.277Z,11.62
2017-04-07T06:45:47.057Z,11.76
2017-04-07T06:47:08.908Z,11.83
2017-04-07T06:48:30.309Z,11.91
2017-04-07T06:49:51.497Z,12.04
2017-04-07T06:51:13.955Z,12.01
2017-04-07T06:52:35.848Z,11.88
2017-04-07T06:53:57.990Z,11.72
2017-04-07T06:55:20.276Z,11.78
2017-04-07T06:56:42.754Z,12.37
2017-04-07T06:58:04.917Z,12.78
2017-04-07T06:59:27.226Z,13.7
2017-04-07T07:00:49.068Z,14.5
2017-04-07T07:02:11.480Z,14.54
2017-04-07T07:03:33.686Z,14.4
2017-04-07T07:04:55.576Z,14.25
2017-04-07T07:06:17.500Z,13.91
2017-04-07T07:07:39.625Z,13.54
2017-04-07T07:09:02.176Z,13.28
2017-04-07T07:10:23.707Z,12.79
2017-04-07T07:11:45.968Z,12.77
2017-04-07T07:13:08.536Z,12.78
2017-04-07T07:14:30.684Z,12.78
2017-04-07T07:15:52.818Z,12.78
2017-04-07T07:17:15.286Z,12.82
2017-04-07T07:18:37.795Z,12.86
2017-04-07T07:19:59.628Z,12.86
2017-04-07T07:21:21.164Z,12.97
2017-04-07T07:22:43.079Z,13
2017-04-07T07:24:05.476Z,13.05
2017-04-07T07:25:27.945Z,13.04
2017-04-07T07:26:50.125Z,13.22
2017-04-07T07:28:11.966Z,13.2
2017-04-07T07:29:33.506Z,13.19
2017-04-07T07:30:55.656Z,13.29
2017-04-07T07:32:17.934Z,13.51
2017-04-07T07:33:39.776Z,13.42
2017-04-07T07:35:02.324Z,13.29
2017-04-07T07:36:23.855Z,13.51
2017-04-07T07:37:46.014Z,14.99
2017-04-07T07:39:07.596Z,16.31
2017-04-07T07:40:29.965Z,16.89
2017-04-07T07:41:52.132Z,17.77
2017-04-07T07:43:14.297Z,18.54
2017-04-07T07:44:36.443Z,19
2017-04-07T07:45:58.864Z,18.95
2017-04-07T07:47:20.377Z,19.02
2017-04-07T07:48:42.264Z,18.25
2017-04-07T07:50:04.444Z,17.48
2017-04-07T07:51:27.041Z,16.86
2017-04-07T07:52:49.601Z,16.31
2017-04-07T07:54:11.807Z,15.86
2017-04-07T07:55:33.957Z,15.2
2017-04-07T07:56:56.445Z,14.64
2017-04-07T07:58:17.963Z,14.33
2017-04-07T07:59:40.472Z,14.22
2017-04-07T08:01:02.496Z,14.2
2017-04-07T08:02:24.990Z,14.21
2017-04-07T08:03:46.813Z,13.99
2017-04-07T08:05:08.957Z,13.99
2017-04-07T08:06:31.503Z,13.81
2017-04-07T08:07:53.896Z,13.85
2017-04-07T08:09:16.063Z,13.87
2017-04-07T08:10:38.335Z,13.81
2017-04-07T08:12:00.815Z,13.63
2017-04-07T08:13:22.936Z,13.59
2017-04-07T08:14:44.756Z,13.6
2017-04-07T08:16:06.584Z,13.54
2017-04-07T08:17:28.519Z,13.57
2017-04-07T08:18:50.994Z,13.49
2017-04-07T08:20:13.245Z,13.36
2017-04-07T08:21:35.397Z,13.39
2017-04-07T08:22:57.592Z,13.36
2017-04-07T08:24:19.449Z,13.57
2017-04-07T08:25:41.663Z,13.48
2017-04-07T08:27:03.493Z,13.64
2017-04-07T08:28:26.105Z,13.89
2017-04-07T08:29:48.710Z,14.36
2017-04-07T08:31:11.150Z,14.64
2017-04-07T08:32:33.683Z,14.68
2017-04-07T08:33:56.142Z,14.6
2017-04-07T08:35:18.211Z,14.46
2017-04-07T08:36:40.342Z,14.33
2017-04-07T08:38:02.379Z,14.25
2017-04-07T08:39:23.934Z,14.22
2017-04-07T08:40:46.510Z,14.22
2017-04-07T08:42:08.472Z,14.29
2017-04-07T08:43:30.374Z,14.21
2017-04-07T08:44:51.963Z,14.24
2017-04-07T08:46:14.458Z,14.42
2017-04-07T08:47:36.592Z,14.47
2017-04-07T08:48:58.424Z,14.22
2017-04-07T08:50:20.914Z,14.21
2017-04-07T08:51:43.075Z,14.1
2017-04-07T08:53:05.223Z,13.88
2017-04-07T08:54:26.783Z,13.71
2017-04-07T08:55:48.621Z,13.82
2017-04-07T08:57:10.763Z,14.2
2017-04-07T08:58:32.326Z,14.62
2017-04-07T08:59:54.773Z,14.95
2017-04-07T09:01:16.305Z,14.99
2017-04-07T09:02:39.122Z,14.68
2017-04-07T09:04:01.585Z,14.36
2017-04-07T09:05:23.123Z,14.4
2017-04-07T09:06:44.686Z,14.35
2017-04-07T09:08:06.578Z,14.57
2017-04-07T09:09:29.205Z,15.03
2017-04-07T09:10:51.384Z,15.32
2017-04-07T09:12:13.564Z,15.57
2017-04-07T09:13:36.417Z,15.71
2017-04-07T09:14:58.653Z,15.75
2017-04-07T09:16:20.813Z,15.83
2017-04-07T09:17:43.348Z,16.23
2017-04-07T09:19:06.115Z,16.46
2017-04-07T09:20:28.486Z,16.43
2017-04-07T09:22:22.426Z,16.09
2017-04-07T09:23:44.890Z,15.59
2017-04-07T09:25:06.432Z,15.41
2017-04-07T09:26:28.903Z,15.1
2017-04-07T09:27:51.368Z,15.07
2017-04-07T09:29:14.124Z,14.95
2017-04-07T09:30:36.076Z,14.95
2017-04-07T09:31:58.583Z,14.96
2017-04-07T09:33:20.830Z,15.09
2017-04-07T09:34:42.907Z,15.29
2017-04-07T09:36:05.042Z,15.56
2017-04-07T09:37:27.002Z,15.68
2017-04-07T09:38:49.172Z,15.75
2017-04-07T09:40:11.885Z,15.87
2017-04-07T09:41:34.091Z,16.23
2017-04-07T09:42:55.944Z,16.21
2017-04-07T09:44:17.760Z,16.08
2017-04-07T09:45:39.749Z,16.09
2017-04-07T09:47:01.286Z,16.27
2017-04-07T09:48:22.794Z,16.63
2017-04-07T09:49:44.310Z,16.85
2017-04-07T09:51:07.225Z,16.79
2017-04-07T09:52:29.688Z,16.75
2017-04-07T09:53:51.533Z,16.11
2017-04-07T09:55:13.703Z,15.67
2017-04-07T09:56:35.472Z,15.54
2017-04-07T09:57:57.316Z,15.54
2017-04-07T09:59:19.454Z,15.6
2017-04-07T10:00:41.410Z,15.53
2017-04-07T10:02:03.553Z,15.35
2017-04-07T10:03:26.064Z,15.34
2017-04-07T10:04:47.920Z,15.29
2017-04-07T10:06:10.065Z,15.38
2017-04-07T10:07:31.854Z,15.43
2017-04-07T10:08:53.803Z,15.38
2017-04-07T10:10:15.949Z,15.21
2017-04-07T10:11:38.425Z,15.17
2017-04-07T10:13:01.356Z,15.06
2017-04-07T10:14:23.196Z,14.86
2017-04-07T10:15:45.682Z,14.83
2017-04-07T10:17:06.897Z,14.91
2017-04-07T10:18:28.986Z,14.89
2017-04-07T10:19:50.839Z,14.73
2017-04-07T10:21:13.007Z,14.68
2017-04-07T10:22:35.211Z,14.52
2017-04-07T10:23:57.307Z,14.33
2017-04-07T10:25:19.149Z,14.35
2017-04-07T10:26:41.025Z,14.29
2017-04-07T10:28:03.516Z,14.29
2017-04-07T10:29:25.597Z,14.22
2017-04-07T10:30:47.435Z,14.25
2017-04-07T10:32:09.582Z,14.25
2017-04-07T10:33:31.755Z,14.2
2017-04-07T10:34:54.154Z,14.17
2017-04-07T10:36:15.668Z,14.24
2017-04-07T10:37:37.837Z,14.24
2017-04-07T10:38:59.982Z,14.37
2017-04-07T10:40:22.692Z,14.33
2017-04-07T10:41:44.388Z,14.36
2017-04-07T10:43:06.979Z,14.36
2017-04-07T10:44:29.461Z,14.45
2017-04-07T10:45:51.588Z,14.35
2017-04-07T10:47:13.767Z,14.36
2017-04-07T10:48:35.607Z,14.45
2017-04-07T10:49:57.776Z,14.43
2017-04-07T10:51:19.910Z,14.4
2017-04-07T10:52:42.052Z,14.52
2017-04-07T10:54:04.210Z,14.43
2017-04-07T10:55:26.469Z,14.62
2017-04-07T10:56:48.617Z,14.73
2017-04-07T10:58:11.058Z,14.78
2017-04-07T10:59:33.531Z,14.7
2017-04-07T11:00:55.754Z,14.46
2017-04-07T11:02:17.901Z,14.46
2017-04-07T11:03:39.417Z,14.5
2017-04-07T11:05:01.037Z,14.64
2017-04-07T11:06:23.043Z,14.62
2017-04-07T11:07:45.484Z,14.65
2017-04-07T11:09:07.363Z,14.7
2017-04-07T11:10:29.526Z,14.88
2017-04-07T11:11:51.416Z,14.99
2017-04-07T11:13:12.937Z,15.16
2017-04-07T11:14:35.143Z,15.23
2017-04-07T11:15:57.626Z,15.43
2017-04-07T11:17:19.464Z,15.62
2017-04-07T11:18:41.874Z,15.69
2017-04-07T11:20:04.046Z,15.68
2017-04-07T11:21:25.884Z,15.75
2017-04-07T11:22:48.359Z,15.71
2017-04-07T11:24:10.812Z,15.56
2017-04-07T11:25:33.086Z,15.6
2017-04-07T11:26:55.088Z,15.67
2017-04-07T11:28:17.586Z,15.62
2017-04-07T11:29:40.113Z,15.54
2017-04-07T11:31:02.065Z,15.47
2017-04-07T11:32:23.926Z,15.39
2017-04-07T11:33:46.074Z,15.35
2017-04-07T11:35:08.486Z,15.28
2017-04-07T11:36:30.639Z,15.28
2017-04-07T11:37:53.101Z,15.2
2017-04-07T11:39:14.627Z,15.25
2017-04-07T11:40:36.736Z,15.47
2017-04-07T11:41:58.926Z,15.57
2017-04-07T11:43:20.470Z,15.69
2017-04-07T11:44:42.639Z,15.6
2017-04-07T11:46:04.746Z,15.78
2017-04-07T11:47:26.571Z,15.78
2017-04-07T11:48:48.415Z,15.83
2017-04-07T11:50:10.265Z,15.84
2017-04-07T11:51:33.033Z,15.78
2017-04-07T11:52:55.212Z,16.09
2017-04-07T11:54:16.719Z,16.24
2017-04-07T11:55:39.216Z,16.27
2017-04-07T11:57:00.695Z,16.27
2017-04-07T11:58:22.927Z,16.27
2017-04-07T11:59:45.112Z,16.04
2017-04-07T12:01:07.048Z,16
2017-04-07T12:02:29.487Z,15.9
2017-04-07T12:03:51.053Z,15.8
2017-04-07T12:05:12.611Z,15.93
2017-04-07T12:06:34.451Z,15.84
2017-04-07T12:07:56.903Z,15.71
2017-04-07T12:09:19.079Z,15.75
2017-04-07T12:10:41.596Z,15.83
2017-04-07T12:12:03.463Z,15.93
2017-04-07T12:13:25.559Z,15.82
2017-04-07T12:14:47.395Z,15.83
2017-04-07T12:16:09.611Z,16.08
2017-04-07T12:17:31.766Z,16.09
2017-04-07T12:18:53.852Z,16.17
2017-04-07T12:20:16.048Z,16.14
2017-04-07T12:21:37.877Z,16.31
2017-04-07T12:22:59.759Z,16.14
2017-04-07T12:24:21.903Z,16.33
2017-04-07T12:25:44.078Z,16.34
2017-04-07T12:27:05.975Z,16.45
2017-04-07T12:28:28.421Z,16.53
2017-04-07T12:29:50.787Z,16.63
2017-04-07T12:31:13.065Z,16.49
2017-04-07T12:32:35.237Z,16.64
2017-04-07T12:33:57.440Z,16.46
2017-04-07T12:35:20.219Z,16.67
2017-04-07T12:36:42.423Z,16.53
2017-04-07T12:38:04.320Z,16.48
2017-04-07T12:39:26.335Z,16.35
2017-04-07T12:40:48.816Z,16.35
2017-04-07T12:42:11.315Z,16.42
2017-04-07T12:43:33.477Z,16.56
2017-04-07T12:44:55.326Z,16.27
2017-04-07T12:46:17.846Z,16.25
2017-04-07T12:47:39.732Z,16.01
2017-04-07T12:49:01.596Z,15.97
2017-04-07T12:50:23.926Z,16.17
2017-04-07T12:51:46.736Z,16.12
2017-04-07T12:53:09.341Z,16.05
2017-04-07T12:54:31.914Z,15.93
2017-04-07T12:55:54.421Z,15.94
2017-04-07T12:57:16.687Z,16.09
2017-04-07T12:58:38.827Z,16.07
2017-04-07T13:00:01.038Z,16.08
2017-04-07T13:01:23.208Z,15.96
2017-04-07T13:02:45.321Z,16.17
2017-04-07T13:04:07.223Z,16.17
2017-04-07T13:05:29.724Z,16.2
2017-04-07T13:06:51.883Z,16.08
2017-04-07T13:08:14.321Z,16.17
2017-04-07T13:09:36.185Z,16.12
2017-04-07T13:10:58.366Z,16.38
2017-04-07T13:12:19.879Z,16.46
2017-04-07T13:13:42.621Z,16.43
2017-04-07T13:15:05.126Z,16.7
2017-04-07T13:16:27.354Z,16.82
2017-04-07T13:17:49.187Z,16.68
2017-04-07T13:19:11.087Z,16.6
2017-04-07T13:20:32.947Z,16.49
2017-04-07T13:21:55.270Z,16.52
2017-04-07T13:23:17.447Z,16.68
2017-04-07T13:24:39.854Z,16.61
2017-04-07T13:26:02.035Z,16.64
2017-04-07T13:27:24.228Z,16.7
2017-04-07T13:28:46.404Z,16.52
2017-04-07T13:30:08.557Z,16.3
2017-04-07T13:31:30.412Z,16.12
2017-04-07T13:32:52.611Z,16.17
2017-04-07T13:34:14.773Z,16.33
2017-04-07T13:35:37.237Z,16.11
2017-04-07T13:36:59.719Z,16.09
2017-04-07T13:38:21.557Z,16.09
2017-04-07T13:39:44.176Z,16.14
2017-04-07T13:41:05.948Z,16.24
2017-04-07T13:42:28.518Z,16.11
2017-04-07T13:43:50.676Z,16.23
2017-04-07T13:45:12.219Z,16.34
2017-04-07T13:46:34.994Z,16.17
2017-04-07T13:47:57.158Z,16.3
2017-04-07T13:49:19.671Z,16.34
2017-04-07T13:50:41.749Z,16.11
2017-04-07T13:52:04.194Z,16.15
2017-04-07T13:53:26.747Z,16.2
2017-04-07T13:54:48.646Z,16.08
2017-04-07T13:56:10.818Z,16.07
2017-04-07T13:57:32.918Z,15.96
2017-04-07T13:58:55.107Z,15.76
2017-04-07T14:00:17.605Z,15.8
2017-04-07T14:01:39.959Z,15.72
2017-04-07T14:03:02.412Z,15.71
2017-04-07T14:04:24.900Z,15.64
2017-04-07T14:05:47.237Z,15.46
2017-04-07T14:07:09.159Z,15.43
2017-04-07T14:08:31.809Z,15.54
2017-04-07T14:09:53.695Z,15.47
2017-04-07T14:11:15.768Z,15.31
2017-04-07T14:12:37.942Z,15.27
2017-04-07T14:14:00.417Z,15.29
2017-04-07T14:15:22.298Z,15.23
2017-04-07T14:16:44.825Z,15.27
2017-04-07T14:18:06.699Z,15.27
2017-04-07T14:19:29.459Z,15.29
2017-04-07T14:20:51.997Z,15.1
2017-04-07T14:22:14.254Z,15.1
2017-04-07T14:23:36.727Z,15.14
2017-04-07T14:24:59.485Z,15.07
2017-04-07T14:26:21.765Z,15.2
2017-04-07T14:27:44.058Z,15.25
2017-04-07T14:29:06.241Z,15.21
2017-04-07T14:30:29.029Z,15.2
2017-04-07T14:31:51.220Z,15.16
2017-04-07T14:33:13.769Z,15.01
2017-04-07T14:34:36.259Z,14.88
2017-04-07T14:35:58.772Z,14.61
2017-04-07T14:37:21.385Z,14.6
2017-04-07T14:38:43.666Z,14.68
2017-04-07T14:40:05.831Z,14.55
2017-04-07T14:41:27.957Z,14.32
2017-04-07T14:42:50.154Z,14.28
2017-04-07T14:44:12.325Z,14.25
2017-04-07T14:45:34.165Z,14.39
2017-04-07T14:46:55.995Z,14.32
2017-04-07T14:48:18.198Z,14.15
2017-04-07T14:49:40.367Z,14.25
2017-04-07T14:51:02.226Z,14.32
2017-04-07T14:52:24.777Z,14.21
2017-04-07T14:53:46.322Z,13.96
2017-04-07T14:55:08.291Z,14.21
2017-04-07T14:56:30.490Z,14.32
2017-04-07T14:57:52.917Z,14.43
2017-04-07T14:59:15.407Z,14.32
2017-04-07T15:00:38.055Z,14.32
2017-04-07T15:01:59.597Z,14.37
2017-04-07T15:03:22.157Z,14.39
2017-04-07T15:04:44.486Z,14.43
2017-04-07T15:06:06.980Z,14.54
2017-04-07T15:07:29.268Z,14.22
2017-04-07T15:08:52.009Z,14.17
2017-04-07T15:10:14.244Z,14.17
2017-04-07T15:11:36.756Z,14.04
2017-04-07T15:12:59.029Z,13.96
2017-04-07T15:14:21.592Z,14.12
2017-04-07T15:15:43.807Z,14.36
2017-04-07T15:17:06.058Z,14.22
2017-04-07T15:18:28.602Z,14
2017-04-07T15:19:51.505Z,14.06
2017-04-07T15:21:14.101Z,14.04
2017-04-07T15:22:36.576Z,14
2017-04-07T15:23:59.224Z,14
2017-04-07T15:25:22.113Z,14.09
2017-04-07T15:26:44.323Z,14
2017-04-07T15:28:06.889Z,13.79
2017-04-07T15:29:28.441Z,13.79
2017-04-07T15:30:50.288Z,13.96
2017-04-07T15:32:12.167Z,14
2017-04-07T15:33:34.353Z,14.2
2017-04-07T15:34:56.509Z,14.18
2017-04-07T15:36:19.114Z,14.25
2017-04-07T15:37:40.856Z,14.21
2017-04-07T15:39:02.687Z,13.97
2017-04-07T15:40:25.279Z,13.97
2017-04-07T15:41:47.859Z,14.04
2017-04-07T15:43:10.050Z,14.09
2017-04-07T15:44:32.544Z,14.04
2017-04-07T15:45:54.755Z,14.02
2017-04-07T15:47:17.030Z,14
2017-04-07T15:48:38.957Z,13.79
2017-04-07T15:50:01.141Z,13.63
2017-04-07T15:51:23.668Z,13.71
2017-04-07T15:52:46.534Z,13.52
2017-04-07T15:54:08.828Z,13.54
2017-04-07T15:55:30.892Z,13.44
2017-04-07T15:56:53.607Z,13.46
2017-04-07T15:58:14.897Z,13.49
2017-04-07T15:59:37.444Z,13.42
2017-04-07T16:00:59.923Z,13.41
2017-04-07T16:02:22.090Z,13.42
2017-04-07T16:03:44.297Z,13.41
2017-04-07T16:05:06.819Z,13.44
2017-04-07T16:06:29.014Z,13.54
2017-04-07T16:07:51.624Z,13.55
2017-04-07T16:09:13.954Z,13.45
2017-04-07T16:10:36.104Z,13.49
2017-04-07T16:11:58.608Z,13.26
2017-04-07T16:13:21.193Z,13.11
2017-04-07T16:14:43.497Z,13.01
2017-04-07T16:16:05.009Z,12.87
2017-04-07T16:17:26.545Z,12.68
2017-04-07T16:18:48.957Z,12.79
2017-04-07T16:20:11.491Z,12.68
2017-04-07T16:21:33.821Z,12.71
2017-04-07T16:22:56.298Z,12.57
2017-04-07T16:24:18.478Z,12.68
2017-04-07T16:25:41.337Z,12.71
2017-04-07T16:27:03.522Z,12.59
2017-04-07T16:28:25.991Z,12.62
2017-04-07T16:29:48.506Z,12.53
2017-04-07T16:31:10.999Z,12.52
2017-04-07T16:32:33.797Z,12.57
2017-04-07T16:33:55.643Z,12.52
2017-04-07T16:35:17.509Z,12.5
2017-04-07T16:36:40.326Z,12.52
2017-04-07T16:38:02.534Z,12.46
2017-04-07T16:39:24.759Z,12.32
2017-04-07T16:40:46.926Z,12.31
2017-04-07T16:42:09.774Z,12.31
2017-04-07T16:43:32.280Z,12.21
2017-04-07T16:44:54.473Z,12.2
2017-04-07T16:46:16.328Z,12.21
2017-04-07T16:47:39.074Z,12.24
2017-04-07T16:49:01.258Z,12.19
2017-04-07T16:50:23.850Z,12.16
2017-04-07T16:51:46.337Z,12.13
2017-04-07T16:53:08.547Z,12.17
2017-04-07T16:54:30.730Z,12.07
2017-04-07T16:55:53.227Z,12.16
2017-04-07T16:57:15.854Z,12.12
2017-04-07T16:58:38.329Z,12.16
2017-04-07T17:00:00.497Z,12.14
2017-04-07T17:01:22.367Z,11.99
2017-04-07T17:02:44.570Z,12.02
2017-04-07T17:04:07.020Z,11.98
2017-04-07T17:05:29.059Z,11.98
2017-04-07T17:06:50.919Z,11.86
2017-04-07T17:08:13.722Z,11.79
2017-04-07T17:09:36.892Z,11.82
2017-04-07T17:10:58.447Z,11.76
2017-04-07T17:12:20.960Z,11.6
2017-04-07T17:13:42.939Z,11.7
2017-04-07T17:15:05.398Z,11.65
2017-04-07T17:16:27.729Z,11.75
2017-04-07T17:17:49.950Z,11.67
2017-04-07T17:19:11.822Z,11.69
2017-04-07T17:20:34.323Z,11.75
2017-04-07T17:21:56.167Z,11.62
2017-04-07T17:23:18.687Z,11.64
2017-04-07T17:24:41.194Z,11.61
2017-04-07T17:26:03.680Z,11.62
2017-04-07T17:27:25.555Z,11.6
2017-04-07T17:28:47.872Z,11.73
2017-04-07T17:30:10.381Z,11.69
2017-04-07T17:31:32.888Z,11.54
2017-04-07T17:32:55.200Z,11.54
2017-04-07T17:34:17.103Z,11.58
2017-04-07T17:35:39.417Z,11.54
2017-04-07T17:37:02.179Z,11.51
2017-04-07T17:38:24.677Z,11.51
2017-04-07T17:39:46.537Z,11.44
2017-04-07T17:41:08.697Z,11.54
2017-04-07T17:42:31.577Z,11.4
2017-04-07T17:43:53.116Z,11.33
2017-04-07T17:45:14.985Z,11.43
2017-04-07T17:46:37.628Z,11.39
2017-04-07T17:48:00.087Z,11.42
2017-04-07T17:49:22.263Z,11.39
2017-04-07T17:50:44.798Z,11.37
2017-04-07T17:52:06.776Z,11.46
2017-04-07T17:53:29.018Z,11.37
2017-04-07T17:54:51.578Z,11.35
2017-04-07T17:56:13.769Z,11.36